sensor_id;sensor_type;location;lat;lon;timestamp;P1;durP1;ratioP1;P2;durP2;ratioP2
14722;SDS011;7452;55.594;12.986;2023-02-01T00:00:50;15.63;;;3.00;;
14722;SDS011;7452;55.594;12.986;2023-02-01T00:03:18;14.63;;;3.13;;
14722;SDS011;7452;55.594;12.986;2023-02-01T00:05:54;14.70;;;3.20;;
14722;SDS011;7452;55.594;12.986;2023-02-01T00:08:22;8.47;;;2.53;;
14722;SDS011;7452;55.594;12.986;2023-02-01T00:10:48;13.03;;;2.93;;
14722;SDS011;7452;55.594;12.986;2023-02-01T00:13:25;14.70;;;2.43;;
14722;SDS011;7452;55.594;12.986;2023-02-01T00:15:55;11.73;;;2.80;;
14722;SDS011;7452;55.594;12.986;2023-02-01T00:18:29;14.60;;;3.00;;
14722;SDS011;7452;55.594;12.986;2023-02-01T00:20:57;9.90;;;2.97;;
14722;SDS011;7452;55.594;12.986;2023-02-01T00:23:24;15.20;;;2.40;;
14722;SDS011;7452;55.594;12.986;2023-02-01T00:25:52;16.13;;;2.80;;
14722;SDS011;7452;55.594;12.986;2023-02-01T00:28:21;12.43;;;3.50;;
14722;SDS011;7452;55.594;12.986;2023-02-01T00:30:55;11.27;;;2.87;;
14722;SDS011;7452;55.594;12.986;2023-02-01T00:33:23;19.87;;;3.07;;
14722;SDS011;7452;55.594;12.986;2023-02-01T00:35:50;11.87;;;2.77;;
14722;SDS011;7452;55.594;12.986;2023-02-01T00:38:17;12.30;;;3.07;;
14722;SDS011;7452;55.594;12.986;2023-02-01T00:40:45;13.63;;;3.27;;
14722;SDS011;7452;55.594;12.986;2023-02-01T00:43:12;18.43;;;3.63;;
14722;SDS011;7452;55.594;12.986;2023-02-01T00:45:41;9.77;;;2.70;;
14722;SDS011;7452;55.594;12.986;2023-02-01T00:48:08;18.07;;;3.47;;
14722;SDS011;7452;55.594;12.986;2023-02-01T00:50:43;18.57;;;3.70;;
14722;SDS011;7452;55.594;12.986;2023-02-01T00:53:11;13.87;;;3.83;;
14722;SDS011;7452;55.594;12.986;2023-02-01T00:55:38;20.30;;;3.97;;
14722;SDS011;7452;55.594;12.986;2023-02-01T00:58:05;17.63;;;3.30;;
14722;SDS011;7452;55.594;12.986;2023-02-01T01:00:34;11.53;;;3.47;;
14722;SDS011;7452;55.594;12.986;2023-02-01T01:03:03;23.83;;;4.30;;
14722;SDS011;7452;55.594;12.986;2023-02-01T01:05:42;14.77;;;3.57;;
14722;SDS011;7452;55.594;12.986;2023-02-01T01:08:09;13.80;;;3.47;;
14722;SDS011;7452;55.594;12.986;2023-02-01T01:10:36;17.03;;;4.20;;
14722;SDS011;7452;55.594;12.986;2023-02-01T01:13:03;16.43;;;3.40;;
14722;SDS011;7452;55.594;12.986;2023-02-01T01:15:35;13.83;;;3.67;;
14722;SDS011;7452;55.594;12.986;2023-02-01T01:18:05;19.07;;;4.03;;
14722;SDS011;7452;55.594;12.986;2023-02-01T01:20:33;18.27;;;3.67;;
14722;SDS011;7452;55.594;12.986;2023-02-01T01:23:02;15.60;;;3.97;;
14722;SDS011;7452;55.594;12.986;2023-02-01T01:25:31;19.47;;;3.90;;
14722;SDS011;7452;55.594;12.986;2023-02-01T01:27:58;19.33;;;3.37;;
14722;SDS011;7452;55.594;12.986;2023-02-01T01:30:25;12.13;;;3.77;;
14722;SDS011;7452;55.594;12.986;2023-02-01T01:32:53;13.93;;;3.53;;
14722;SDS011;7452;55.594;12.986;2023-02-01T01:35:21;20.30;;;3.83;;
14722;SDS011;7452;55.594;12.986;2023-02-01T01:37:49;13.17;;;3.50;;
14722;SDS011;7452;55.594;12.986;2023-02-01T01:40:17;18.07;;;3.83;;
14722;SDS011;7452;55.594;12.986;2023-02-01T01:42:44;14.97;;;3.67;;
14722;SDS011;7452;55.594;12.986;2023-02-01T01:45:19;15.70;;;3.97;;
14722;SDS011;7452;55.594;12.986;2023-02-01T01:47:51;16.27;;;3.27;;
14722;SDS011;7452;55.594;12.986;2023-02-01T01:50:22;17.37;;;3.40;;
14722;SDS011;7452;55.594;12.986;2023-02-01T01:52:53;22.40;;;4.23;;
14722;SDS011;7452;55.594;12.986;2023-02-01T01:55:22;16.47;;;3.33;;
14722;SDS011;7452;55.594;12.986;2023-02-01T01:57:53;20.30;;;4.00;;
14722;SDS011;7452;55.594;12.986;2023-02-01T02:00:24;17.37;;;3.27;;
14722;SDS011;7452;55.594;12.986;2023-02-01T02:02:53;18.67;;;4.00;;
14722;SDS011;7452;55.594;12.986;2023-02-01T02:05:24;17.03;;;3.70;;
14722;SDS011;7452;55.594;12.986;2023-02-01T02:07:52;18.57;;;3.33;;
14722;SDS011;7452;55.594;12.986;2023-02-01T02:10:22;17.83;;;3.70;;
14722;SDS011;7452;55.594;12.986;2023-02-01T02:13:09;17.00;;;3.90;;
14722;SDS011;7452;55.594;12.986;2023-02-01T02:15:38;14.87;;;3.17;;
14722;SDS011;7452;55.594;12.986;2023-02-01T02:18:13;17.70;;;3.23;;
14722;SDS011;7452;55.594;12.986;2023-02-01T02:20:52;14.60;;;2.90;;
14722;SDS011;7452;55.594;12.986;2023-02-01T02:33:28;20.70;;;3.90;;
14722;SDS011;7452;55.594;12.986;2023-02-01T02:36:18;18.87;;;3.40;;
14722;SDS011;7452;55.594;12.986;2023-02-01T02:38:57;23.33;;;4.27;;
14722;SDS011;7452;55.594;12.986;2023-02-01T02:41:31;16.40;;;4.40;;
14722;SDS011;7452;55.594;12.986;2023-02-01T02:44:21;23.03;;;4.67;;
14722;SDS011;7452;55.594;12.986;2023-02-01T02:47:16;19.50;;;4.17;;
14722;SDS011;7452;55.594;12.986;2023-02-01T02:49:54;16.83;;;4.33;;
14722;SDS011;7452;55.594;12.986;2023-02-01T02:52:42;17.27;;;4.47;;
14722;SDS011;7452;55.594;12.986;2023-02-01T02:55:31;19.60;;;4.40;;
14722;SDS011;7452;55.594;12.986;2023-02-01T02:58:02;22.80;;;4.50;;
14722;SDS011;7452;55.594;12.986;2023-02-01T03:00:50;17.80;;;4.37;;
14722;SDS011;7452;55.594;12.986;2023-02-01T03:03:36;19.10;;;3.63;;
14722;SDS011;7452;55.594;12.986;2023-02-01T03:06:23;20.67;;;4.50;;
14722;SDS011;7452;55.594;12.986;2023-02-01T03:08:51;18.80;;;3.73;;
14722;SDS011;7452;55.594;12.986;2023-02-01T03:11:31;20.57;;;4.20;;
14722;SDS011;7452;55.594;12.986;2023-02-01T03:14:13;17.37;;;3.63;;
14722;SDS011;7452;55.594;12.986;2023-02-01T03:16:43;15.47;;;3.87;;
14722;SDS011;7452;55.594;12.986;2023-02-01T03:19:15;22.03;;;4.30;;
14722;SDS011;7452;55.594;12.986;2023-02-01T03:21:47;16.43;;;4.00;;
14722;SDS011;7452;55.594;12.986;2023-02-01T03:24:18;19.13;;;3.20;;
14722;SDS011;7452;55.594;12.986;2023-02-01T03:26:58;19.63;;;4.37;;
14722;SDS011;7452;55.594;12.986;2023-02-01T03:29:33;18.03;;;3.77;;
14722;SDS011;7452;55.594;12.986;2023-02-01T03:32:07;16.93;;;4.27;;
14722;SDS011;7452;55.594;12.986;2023-02-01T03:34:35;23.53;;;4.80;;
14722;SDS011;7452;55.594;12.986;2023-02-01T03:37:06;17.73;;;3.73;;
14722;SDS011;7452;55.594;12.986;2023-02-01T03:39:36;19.30;;;4.50;;
14722;SDS011;7452;55.594;12.986;2023-02-01T03:42:08;21.77;;;4.00;;
14722;SDS011;7452;55.594;12.986;2023-02-01T03:44:41;15.87;;;4.07;;
14722;SDS011;7452;55.594;12.986;2023-02-01T03:47:16;17.43;;;4.47;;
14722;SDS011;7452;55.594;12.986;2023-02-01T03:49:48;18.27;;;4.20;;
14722;SDS011;7452;55.594;12.986;2023-02-01T03:52:21;21.30;;;4.67;;
14722;SDS011;7452;55.594;12.986;2023-02-01T03:54:52;18.10;;;4.27;;
14722;SDS011;7452;55.594;12.986;2023-02-01T03:57:22;23.67;;;4.87;;
14722;SDS011;7452;55.594;12.986;2023-02-01T03:59:52;21.17;;;4.57;;
14722;SDS011;7452;55.594;12.986;2023-02-01T04:02:20;16.43;;;4.10;;
14722;SDS011;7452;55.594;12.986;2023-02-01T04:04:48;17.23;;;5.23;;
14722;SDS011;7452;55.594;12.986;2023-02-01T04:07:16;22.07;;;4.40;;
14722;SDS011;7452;55.594;12.986;2023-02-01T04:09:46;16.17;;;4.60;;
14722;SDS011;7452;55.594;12.986;2023-02-01T04:12:13;27.93;;;5.10;;
14722;SDS011;7452;55.594;12.986;2023-02-01T04:14:41;21.17;;;4.63;;
14722;SDS011;7452;55.594;12.986;2023-02-01T04:17:08;20.87;;;4.83;;
14722;SDS011;7452;55.594;12.986;2023-02-01T04:19:35;23.13;;;4.60;;
14722;SDS011;7452;55.594;12.986;2023-02-01T04:22:02;20.90;;;5.13;;
14722;SDS011;7452;55.594;12.986;2023-02-01T04:24:30;22.50;;;5.83;;
14722;SDS011;7452;55.594;12.986;2023-02-01T04:26:58;24.83;;;5.10;;
14722;SDS011;7452;55.594;12.986;2023-02-01T04:29:28;23.73;;;5.03;;
14722;SDS011;7452;55.594;12.986;2023-02-01T04:31:55;23.87;;;5.00;;
14722;SDS011;7452;55.594;12.986;2023-02-01T04:34:22;22.17;;;5.17;;
14722;SDS011;7452;55.594;12.986;2023-02-01T04:36:49;25.87;;;5.20;;
14722;SDS011;7452;55.594;12.986;2023-02-01T04:39:16;24.03;;;4.80;;
14722;SDS011;7452;55.594;12.986;2023-02-01T04:41:43;21.80;;;4.87;;
14722;SDS011;7452;55.594;12.986;2023-02-01T04:44:12;22.67;;;4.53;;
14722;SDS011;7452;55.594;12.986;2023-02-01T04:46:41;22.37;;;5.00;;
14722;SDS011;7452;55.594;12.986;2023-02-01T04:49:08;19.67;;;4.63;;
14722;SDS011;7452;55.594;12.986;2023-02-01T04:51:35;23.03;;;4.40;;
14722;SDS011;7452;55.594;12.986;2023-02-01T04:54:02;19.90;;;4.53;;
14722;SDS011;7452;55.594;12.986;2023-02-01T04:56:29;20.33;;;4.23;;
14722;SDS011;7452;55.594;12.986;2023-02-01T04:58:57;17.23;;;4.77;;
14722;SDS011;7452;55.594;12.986;2023-02-01T05:01:26;24.10;;;4.57;;
14722;SDS011;7452;55.594;12.986;2023-02-01T05:03:53;19.83;;;4.77;;
14722;SDS011;7452;55.594;12.986;2023-02-01T05:06:20;16.07;;;4.00;;
14722;SDS011;7452;55.594;12.986;2023-02-01T05:08:48;15.70;;;3.63;;
14722;SDS011;7452;55.594;12.986;2023-02-01T05:11:15;15.73;;;4.17;;
14722;SDS011;7452;55.594;12.986;2023-02-01T05:13:57;19.00;;;3.67;;
14722;SDS011;7452;55.594;12.986;2023-02-01T05:16:27;20.47;;;4.67;;
14722;SDS011;7452;55.594;12.986;2023-02-01T05:18:57;18.33;;;4.00;;
14722;SDS011;7452;55.594;12.986;2023-02-01T05:21:24;20.03;;;4.20;;
14722;SDS011;7452;55.594;12.986;2023-02-01T05:23:51;17.87;;;4.10;;
14722;SDS011;7452;55.594;12.986;2023-02-01T05:26:38;14.73;;;3.80;;
14722;SDS011;7452;55.594;12.986;2023-02-01T05:29:08;20.37;;;4.10;;
14722;SDS011;7452;55.594;12.986;2023-02-01T05:31:39;16.03;;;4.10;;
14722;SDS011;7452;55.594;12.986;2023-02-01T05:34:07;21.00;;;4.43;;
14722;SDS011;7452;55.594;12.986;2023-02-01T05:36:34;17.53;;;4.13;;
14722;SDS011;7452;55.594;12.986;2023-02-01T05:39:02;13.73;;;3.77;;
14722;SDS011;7452;55.594;12.986;2023-02-01T05:41:30;16.30;;;3.53;;
14722;SDS011;7452;55.594;12.986;2023-02-01T05:43:57;14.87;;;3.47;;
14722;SDS011;7452;55.594;12.986;2023-02-01T05:46:25;17.50;;;3.20;;
14722;SDS011;7452;55.594;12.986;2023-02-01T05:48:54;11.93;;;3.60;;
14722;SDS011;7452;55.594;12.986;2023-02-01T05:51:22;14.67;;;2.63;;
14722;SDS011;7452;55.594;12.986;2023-02-01T05:53:49;11.30;;;2.63;;
14722;SDS011;7452;55.594;12.986;2023-02-01T05:56:16;12.87;;;2.40;;
14722;SDS011;7452;55.594;12.986;2023-02-01T05:58:43;8.70;;;2.73;;
14722;SDS011;7452;55.594;12.986;2023-02-01T06:01:12;11.13;;;2.77;;
14722;SDS011;7452;55.594;12.986;2023-02-01T06:03:40;9.90;;;2.10;;
14722;SDS011;7452;55.594;12.986;2023-02-01T06:06:11;4.43;;;1.50;;
14722;SDS011;7452;55.594;12.986;2023-02-01T06:08:38;8.23;;;1.77;;
14722;SDS011;7452;55.594;12.986;2023-02-01T06:11:06;14.87;;;2.87;;
14722;SDS011;7452;55.594;12.986;2023-02-01T06:13:34;8.60;;;2.20;;
14722;SDS011;7452;55.594;12.986;2023-02-01T06:16:03;6.73;;;1.87;;
14722;SDS011;7452;55.594;12.986;2023-02-01T06:18:32;6.27;;;1.70;;
14722;SDS011;7452;55.594;12.986;2023-02-01T06:21:00;8.27;;;1.77;;
14722;SDS011;7452;55.594;12.986;2023-02-01T06:23:29;7.80;;;1.70;;
14722;SDS011;7452;55.594;12.986;2023-02-01T06:25:58;5.30;;;1.47;;
14722;SDS011;7452;55.594;12.986;2023-02-01T06:28:27;8.30;;;1.60;;
14722;SDS011;7452;55.594;12.986;2023-02-01T06:30:54;7.63;;;1.73;;
14722;SDS011;7452;55.594;12.986;2023-02-01T06:33:23;9.97;;;1.87;;
14722;SDS011;7452;55.594;12.986;2023-02-01T06:35:56;7.57;;;1.77;;
14722;SDS011;7452;55.594;12.986;2023-02-01T06:38:23;8.47;;;1.93;;
14722;SDS011;7452;55.594;12.986;2023-02-01T06:40:55;12.17;;;2.43;;
14722;SDS011;7452;55.594;12.986;2023-02-01T06:43:24;6.40;;;2.33;;
14722;SDS011;7452;55.594;12.986;2023-02-01T06:45:53;6.73;;;2.20;;
14722;SDS011;7452;55.594;12.986;2023-02-01T06:48:24;8.63;;;1.90;;
14722;SDS011;7452;55.594;12.986;2023-02-01T06:50:51;12.87;;;2.60;;
14722;SDS011;7452;55.594;12.986;2023-02-01T06:53:20;5.57;;;2.00;;
14722;SDS011;7452;55.594;12.986;2023-02-01T06:55:53;8.30;;;2.20;;
14722;SDS011;7452;55.594;12.986;2023-02-01T06:58:23;11.03;;;2.10;;
14722;SDS011;7452;55.594;12.986;2023-02-01T07:00:54;10.47;;;2.10;;
14722;SDS011;7452;55.594;12.986;2023-02-01T07:03:21;13.10;;;2.20;;
14722;SDS011;7452;55.594;12.986;2023-02-01T07:05:48;11.30;;;2.73;;
14722;SDS011;7452;55.594;12.986;2023-02-01T07:08:16;10.60;;;2.33;;
14722;SDS011;7452;55.594;12.986;2023-02-01T07:10:43;6.37;;;1.87;;
14722;SDS011;7452;55.594;12.986;2023-02-01T07:13:13;9.50;;;2.17;;
14722;SDS011;7452;55.594;12.986;2023-02-01T07:15:41;11.30;;;2.37;;
14722;SDS011;7452;55.594;12.986;2023-02-01T07:18:09;9.50;;;2.23;;
14722;SDS011;7452;55.594;12.986;2023-02-01T07:20:36;10.37;;;2.20;;
14722;SDS011;7452;55.594;12.986;2023-02-01T07:23:09;11.93;;;2.37;;
14722;SDS011;7452;55.594;12.986;2023-02-01T07:25:36;10.80;;;2.90;;
14722;SDS011;7452;55.594;12.986;2023-02-01T07:28:03;12.00;;;2.60;;
14722;SDS011;7452;55.594;12.986;2023-02-01T07:30:31;10.80;;;3.00;;
14722;SDS011;7452;55.594;12.986;2023-02-01T07:32:58;13.30;;;2.90;;
14722;SDS011;7452;55.594;12.986;2023-02-01T07:35:26;12.03;;;2.40;;
14722;SDS011;7452;55.594;12.986;2023-02-01T07:37:53;9.00;;;2.33;;
14722;SDS011;7452;55.594;12.986;2023-02-01T07:40:20;11.53;;;2.37;;
14722;SDS011;7452;55.594;12.986;2023-02-01T07:42:54;10.23;;;2.23;;
14722;SDS011;7452;55.594;12.986;2023-02-01T07:45:21;8.03;;;2.20;;
14722;SDS011;7452;55.594;12.986;2023-02-01T07:47:50;11.47;;;2.77;;
14722;SDS011;7452;55.594;12.986;2023-02-01T07:50:18;9.77;;;2.37;;
14722;SDS011;7452;55.594;12.986;2023-02-01T07:52:46;9.30;;;2.60;;
14722;SDS011;7452;55.594;12.986;2023-02-01T07:55:13;11.10;;;2.63;;
14722;SDS011;7452;55.594;12.986;2023-02-01T07:57:40;13.70;;;3.07;;
14722;SDS011;7452;55.594;12.986;2023-02-01T08:00:12;7.77;;;2.50;;
14722;SDS011;7452;55.594;12.986;2023-02-01T08:02:58;9.50;;;2.27;;
14722;SDS011;7452;55.594;12.986;2023-02-01T08:05:26;11.70;;;2.20;;
14722;SDS011;7452;55.594;12.986;2023-02-01T08:07:54;15.30;;;2.67;;
14722;SDS011;7452;55.594;12.986;2023-02-01T08:10:21;7.43;;;2.13;;
14722;SDS011;7452;55.594;12.986;2023-02-01T08:12:48;11.27;;;2.77;;
14722;SDS011;7452;55.594;12.986;2023-02-01T08:15:17;10.17;;;2.43;;
14722;SDS011;7452;55.594;12.986;2023-02-01T08:17:47;9.10;;;2.87;;
14722;SDS011;7452;55.594;12.986;2023-02-01T08:20:16;10.47;;;2.13;;
14722;SDS011;7452;55.594;12.986;2023-02-01T08:22:44;10.93;;;2.70;;
14722;SDS011;7452;55.594;12.986;2023-02-01T08:25:11;7.10;;;1.93;;
14722;SDS011;7452;55.594;12.986;2023-02-01T08:27:39;9.20;;;2.40;;
14722;SDS011;7452;55.594;12.986;2023-02-01T08:30:06;8.50;;;2.20;;
14722;SDS011;7452;55.594;12.986;2023-02-01T08:32:35;12.20;;;2.70;;
14722;SDS011;7452;55.594;12.986;2023-02-01T08:35:02;9.67;;;1.97;;
14722;SDS011;7452;55.594;12.986;2023-02-01T08:37:35;6.27;;;1.60;;
14722;SDS011;7452;55.594;12.986;2023-02-01T08:40:03;11.07;;;1.97;;
14722;SDS011;7452;55.594;12.986;2023-02-01T08:42:32;8.13;;;1.93;;
14722;SDS011;7452;55.594;12.986;2023-02-01T08:45:17;9.57;;;1.87;;
14722;SDS011;7452;55.594;12.986;2023-02-01T08:47:45;8.03;;;2.20;;
14722;SDS011;7452;55.594;12.986;2023-02-01T08:50:14;7.13;;;2.20;;
14722;SDS011;7452;55.594;12.986;2023-02-01T08:52:43;9.93;;;2.30;;
14722;SDS011;7452;55.594;12.986;2023-02-01T08:55:11;7.40;;;2.17;;
14722;SDS011;7452;55.594;12.986;2023-02-01T08:57:44;8.07;;;2.07;;
14722;SDS011;7452;55.594;12.986;2023-02-01T09:00:12;10.23;;;1.73;;
14722;SDS011;7452;55.594;12.986;2023-02-01T09:02:40;8.57;;;2.07;;
14722;SDS011;7452;55.594;12.986;2023-02-01T09:05:07;7.70;;;1.73;;
14722;SDS011;7452;55.594;12.986;2023-02-01T09:07:36;9.90;;;1.90;;
14722;SDS011;7452;55.594;12.986;2023-02-01T09:10:05;7.00;;;2.33;;
14722;SDS011;7452;55.594;12.986;2023-02-01T09:12:33;10.30;;;2.23;;
14722;SDS011;7452;55.594;12.986;2023-02-01T09:15:01;10.60;;;2.27;;
14722;SDS011;7452;55.594;12.986;2023-02-01T09:17:32;10.10;;;2.50;;
14722;SDS011;7452;55.594;12.986;2023-02-01T09:19:59;9.97;;;2.23;;
14722;SDS011;7452;55.594;12.986;2023-02-01T09:22:26;11.00;;;1.80;;
14722;SDS011;7452;55.594;12.986;2023-02-01T09:24:53;9.73;;;2.00;;
14722;SDS011;7452;55.594;12.986;2023-02-01T09:27:21;10.30;;;1.63;;
14722;SDS011;7452;55.594;12.986;2023-02-01T09:29:49;8.43;;;1.73;;
14722;SDS011;7452;55.594;12.986;2023-02-01T09:32:17;10.60;;;1.80;;
14722;SDS011;7452;55.594;12.986;2023-02-01T09:34:45;9.40;;;1.83;;
14722;SDS011;7452;55.594;12.986;2023-02-01T09:37:12;5.60;;;1.60;;
14722;SDS011;7452;55.594;12.986;2023-02-01T09:39:40;12.63;;;2.97;;
14722;SDS011;7452;55.594;12.986;2023-02-01T09:42:12;9.17;;;2.00;;
14722;SDS011;7452;55.594;12.986;2023-02-01T09:44:57;11.27;;;2.20;;
14722;SDS011;7452;55.594;12.986;2023-02-01T09:47:36;8.47;;;1.90;;
14722;SDS011;7452;55.594;12.986;2023-02-01T09:50:11;9.47;;;2.70;;
14722;SDS011;7452;55.594;12.986;2023-02-01T09:52:43;6.47;;;2.30;;
14722;SDS011;7452;55.594;12.986;2023-02-01T09:55:16;9.43;;;2.40;;
14722;SDS011;7452;55.594;12.986;2023-02-01T09:57:51;9.97;;;2.33;;
14722;SDS011;7452;55.594;12.986;2023-02-01T10:00:23;7.30;;;1.93;;
14722;SDS011;7452;55.594;12.986;2023-02-01T10:02:53;5.77;;;1.77;;
14722;SDS011;7452;55.594;12.986;2023-02-01T10:08:19;7.80;;;2.37;;
14722;SDS011;7452;55.594;12.986;2023-02-01T10:10:57;7.90;;;1.90;;
14722;SDS011;7452;55.594;12.986;2023-02-01T10:13:39;6.77;;;2.40;;
14722;SDS011;7452;55.594;12.986;2023-02-01T10:16:19;8.40;;;2.37;;
14722;SDS011;7452;55.594;12.986;2023-02-01T10:19:10;9.90;;;2.10;;
14722;SDS011;7452;55.594;12.986;2023-02-01T10:21:51;6.27;;;2.10;;
14722;SDS011;7452;55.594;12.986;2023-02-01T10:24:26;7.90;;;2.30;;
14722;SDS011;7452;55.594;12.986;2023-02-01T10:27:08;13.20;;;2.27;;
14722;SDS011;7452;55.594;12.986;2023-02-01T10:29:42;8.17;;;2.13;;
14722;SDS011;7452;55.594;12.986;2023-02-01T10:32:14;6.67;;;2.27;;
14722;SDS011;7452;55.594;12.986;2023-02-01T10:34:43;9.33;;;2.53;;
14722;SDS011;7452;55.594;12.986;2023-02-01T10:37:17;9.67;;;2.73;;
14722;SDS011;7452;55.594;12.986;2023-02-01T10:39:49;8.60;;;2.17;;
14722;SDS011;7452;55.594;12.986;2023-02-01T10:42:18;10.47;;;2.27;;
14722;SDS011;7452;55.594;12.986;2023-02-01T10:44:51;9.43;;;2.60;;
14722;SDS011;7452;55.594;12.986;2023-02-01T10:47:25;7.13;;;2.00;;
14722;SDS011;7452;55.594;12.986;2023-02-01T10:49:55;10.23;;;2.33;;
14722;SDS011;7452;55.594;12.986;2023-02-01T10:52:30;13.43;;;2.57;;
14722;SDS011;7452;55.594;12.986;2023-02-01T10:57:59;13.10;;;2.80;;
14722;SDS011;7452;55.594;12.986;2023-02-01T11:00:29;8.20;;;2.10;;
14722;SDS011;7452;55.594;12.986;2023-02-01T11:03:19;8.10;;;2.10;;
14722;SDS011;7452;55.594;12.986;2023-02-01T11:05:48;11.07;;;3.03;;
14722;SDS011;7452;55.594;12.986;2023-02-01T11:08:15;10.30;;;2.57;;
14722;SDS011;7452;55.594;12.986;2023-02-01T11:10:44;10.73;;;2.97;;
14722;SDS011;7452;55.594;12.986;2023-02-01T11:13:13;11.17;;;2.70;;
14722;SDS011;7452;55.594;12.986;2023-02-01T11:15:46;9.77;;;3.00;;
14722;SDS011;7452;55.594;12.986;2023-02-01T11:18:24;11.77;;;2.27;;
14722;SDS011;7452;55.594;12.986;2023-02-01T11:20:53;9.27;;;1.93;;
14722;SDS011;7452;55.594;12.986;2023-02-01T11:23:22;13.10;;;2.33;;
14722;SDS011;7452;55.594;12.986;2023-02-01T11:25:51;9.90;;;2.60;;
14722;SDS011;7452;55.594;12.986;2023-02-01T11:28:20;9.17;;;1.93;;
14722;SDS011;7452;55.594;12.986;2023-02-01T11:30:53;9.83;;;2.43;;
14722;SDS011;7452;55.594;12.986;2023-02-01T11:33:23;12.60;;;2.50;;
14722;SDS011;7452;55.594;12.986;2023-02-01T11:35:55;7.67;;;2.43;;
14722;SDS011;7452;55.594;12.986;2023-02-01T11:38:26;8.37;;;2.03;;
14722;SDS011;7452;55.594;12.986;2023-02-01T11:40:55;9.67;;;2.57;;
14722;SDS011;7452;55.594;12.986;2023-02-01T11:43:38;8.67;;;2.17;;
14722;SDS011;7452;55.594;12.986;2023-02-01T11:46:24;6.07;;;1.90;;
14722;SDS011;7452;55.594;12.986;2023-02-01T11:48:55;7.00;;;1.93;;
14722;SDS011;7452;55.594;12.986;2023-02-01T11:51:33;8.10;;;1.97;;
14722;SDS011;7452;55.594;12.986;2023-02-01T11:54:09;8.60;;;2.27;;
14722;SDS011;7452;55.594;12.986;2023-02-01T11:56:53;6.87;;;2.23;;
14722;SDS011;7452;55.594;12.986;2023-02-01T11:59:32;9.47;;;2.00;;
14722;SDS011;7452;55.594;12.986;2023-02-01T12:02:23;9.10;;;2.20;;
14722;SDS011;7452;55.594;12.986;2023-02-01T12:05:14;10.43;;;2.47;;
14722;SDS011;7452;55.594;12.986;2023-02-01T12:07:58;14.20;;;2.47;;
14722;SDS011;7452;55.594;12.986;2023-02-01T12:10:38;13.23;;;2.60;;
14722;SDS011;7452;55.594;12.986;2023-02-01T12:13:20;9.60;;;2.40;;
14722;SDS011;7452;55.594;12.986;2023-02-01T12:16:02;11.40;;;2.53;;
14722;SDS011;7452;55.594;12.986;2023-02-01T12:21:57;14.50;;;3.30;;
14722;SDS011;7452;55.594;12.986;2023-02-01T12:24:50;9.40;;;2.40;;
14722;SDS011;7452;55.594;12.986;2023-02-01T12:28:03;10.73;;;2.53;;
14722;SDS011;7452;55.594;12.986;2023-02-01T12:33:46;6.87;;;1.57;;
14722;SDS011;7452;55.594;12.986;2023-02-01T12:36:40;6.17;;;1.87;;
14722;SDS011;7452;55.594;12.986;2023-02-01T12:39:16;10.00;;;2.33;;
14722;SDS011;7452;55.594;12.986;2023-02-01T12:41:53;11.50;;;1.77;;
14722;SDS011;7452;55.594;12.986;2023-02-01T12:44:30;9.97;;;1.77;;
14722;SDS011;7452;55.594;12.986;2023-02-01T12:47:12;5.90;;;1.17;;
14722;SDS011;7452;55.594;12.986;2023-02-01T12:49:52;10.60;;;1.60;;
14722;SDS011;7452;55.594;12.986;2023-02-01T12:52:26;9.07;;;2.10;;
14722;SDS011;7452;55.594;12.986;2023-02-01T12:55:01;7.83;;;1.87;;
14722;SDS011;7452;55.594;12.986;2023-02-01T12:57:35;11.53;;;1.87;;
14722;SDS011;7452;55.594;12.986;2023-02-01T13:00:07;6.97;;;1.80;;
14722;SDS011;7452;55.594;12.986;2023-02-01T13:02:49;11.47;;;2.40;;
14722;SDS011;7452;55.594;12.986;2023-02-01T13:05:21;8.40;;;2.20;;
14722;SDS011;7452;55.594;12.986;2023-02-01T13:07:56;7.03;;;2.33;;
14722;SDS011;7452;55.594;12.986;2023-02-01T13:10:28;7.00;;;1.70;;
14722;SDS011;7452;55.594;12.986;2023-02-01T13:13:02;10.20;;;2.13;;
14722;SDS011;7452;55.594;12.986;2023-02-01T13:15:39;12.17;;;2.80;;
14722;SDS011;7452;55.594;12.986;2023-02-01T13:18:11;6.10;;;1.80;;
14722;SDS011;7452;55.594;12.986;2023-02-01T13:20:45;8.60;;;1.80;;
14722;SDS011;7452;55.594;12.986;2023-02-01T13:23:23;9.27;;;2.10;;
14722;SDS011;7452;55.594;12.986;2023-02-01T13:25:54;8.53;;;2.30;;
14722;SDS011;7452;55.594;12.986;2023-02-01T13:28:24;4.93;;;1.30;;
14722;SDS011;7452;55.594;12.986;2023-02-01T13:33:55;10.77;;;1.90;;
14722;SDS011;7452;55.594;12.986;2023-02-01T13:39:41;6.67;;;1.93;;
14722;SDS011;7452;55.594;12.986;2023-02-01T13:42:18;8.37;;;2.73;;
14722;SDS011;7452;55.594;12.986;2023-02-01T13:44:48;11.53;;;2.67;;
14722;SDS011;7452;55.594;12.986;2023-02-01T13:47:21;7.80;;;2.43;;
14722;SDS011;7452;55.594;12.986;2023-02-01T13:49:51;6.37;;;2.30;;
14722;SDS011;7452;55.594;12.986;2023-02-01T13:52:25;8.90;;;2.53;;
14722;SDS011;7452;55.594;12.986;2023-02-01T13:55:03;9.20;;;2.93;;
14722;SDS011;7452;55.594;12.986;2023-02-01T13:57:44;7.13;;;2.30;;
14722;SDS011;7452;55.594;12.986;2023-02-01T14:00:26;11.30;;;2.70;;
14722;SDS011;7452;55.594;12.986;2023-02-01T14:03:08;9.87;;;2.30;;
14722;SDS011;7452;55.594;12.986;2023-02-01T14:08:38;12.93;;;3.37;;
14722;SDS011;7452;55.594;12.986;2023-02-01T14:23:09;12.03;;;2.93;;
14722;SDS011;7452;55.594;12.986;2023-02-01T14:25:40;9.50;;;2.63;;
14722;SDS011;7452;55.594;12.986;2023-02-01T14:28:21;13.37;;;6.00;;
14722;SDS011;7452;55.594;12.986;2023-02-01T14:30:53;6.50;;;2.47;;
14722;SDS011;7452;55.594;12.986;2023-02-01T14:33:23;11.27;;;3.50;;
14722;SDS011;7452;55.594;12.986;2023-02-01T14:35:57;13.20;;;3.10;;
14722;SDS011;7452;55.594;12.986;2023-02-01T14:38:30;13.43;;;3.00;;
14722;SDS011;7452;55.594;12.986;2023-02-01T14:41:10;11.83;;;2.87;;
14722;SDS011;7452;55.594;12.986;2023-02-01T14:43:51;14.40;;;3.57;;
14722;SDS011;7452;55.594;12.986;2023-02-01T14:49:36;15.00;;;3.70;;
14722;SDS011;7452;55.594;12.986;2023-02-01T14:52:09;17.37;;;3.53;;
14722;SDS011;7452;55.594;12.986;2023-02-01T14:54:40;12.83;;;3.17;;
14722;SDS011;7452;55.594;12.986;2023-02-01T14:57:12;17.70;;;3.70;;
14722;SDS011;7452;55.594;12.986;2023-02-01T14:59:43;15.93;;;3.53;;
14722;SDS011;7452;55.594;12.986;2023-02-01T15:02:17;18.57;;;3.43;;
14722;SDS011;7452;55.594;12.986;2023-02-01T15:04:53;14.93;;;3.20;;
14722;SDS011;7452;55.594;12.986;2023-02-01T15:07:21;15.63;;;3.50;;
14722;SDS011;7452;55.594;12.986;2023-02-01T15:09:50;14.07;;;4.20;;
14722;SDS011;7452;55.594;12.986;2023-02-01T15:12:22;19.67;;;4.47;;
14722;SDS011;7452;55.594;12.986;2023-02-01T15:15:13;19.10;;;4.20;;
14722;SDS011;7452;55.594;12.986;2023-02-01T15:17:48;13.73;;;3.47;;
14722;SDS011;7452;55.594;12.986;2023-02-01T15:20:17;14.37;;;3.13;;
14722;SDS011;7452;55.594;12.986;2023-02-01T15:22:56;13.83;;;3.37;;
14722;SDS011;7452;55.594;12.986;2023-02-01T15:25:25;14.00;;;3.30;;
14722;SDS011;7452;55.594;12.986;2023-02-01T15:27:54;19.17;;;3.13;;
14722;SDS011;7452;55.594;12.986;2023-02-01T15:30:26;20.13;;;3.80;;
14722;SDS011;7452;55.594;12.986;2023-02-01T15:33:04;14.40;;;3.53;;
14722;SDS011;7452;55.594;12.986;2023-02-01T15:35:34;12.40;;;2.80;;
14722;SDS011;7452;55.594;12.986;2023-02-01T15:41:01;13.90;;;3.57;;
14722;SDS011;7452;55.594;12.986;2023-02-01T15:43:31;12.20;;;3.73;;
14722;SDS011;7452;55.594;12.986;2023-02-01T15:46:01;14.50;;;3.60;;
14722;SDS011;7452;55.594;12.986;2023-02-01T15:48:36;17.03;;;3.73;;
14722;SDS011;7452;55.594;12.986;2023-02-01T15:51:13;17.47;;;4.37;;
14722;SDS011;7452;55.594;12.986;2023-02-01T15:53:46;20.63;;;4.00;;
14722;SDS011;7452;55.594;12.986;2023-02-01T15:56:22;18.97;;;4.63;;